»·PEaware :: N86B CVV-KHQM

N86B :: CVV-KHQM

FLIGHT INFORMATION

Flight Status: Arrived
Operator: Privately registered:
United States
More flights under this callsign
Pilot: Sulaiman S. (16428)
Aircraft: Unknown
(/W)
More flights by this aircraft type
Origin: CVV
Destination: KHQM Bowerman
United States
More flights between these airports :: More routes between these airports
Route: +
File this flight plan on PilotEdge
Remarks:
Altitude:
(Current/Filed)
8,500ft
Speed:
(Current/Filed)
0kts
Departed: 02-Aug-20 10:59 AM
Arrived: 02-Aug-20 11:52 AM
Distance/Time
Traveled:
Not Available
Distance/Time
To Go:
Arrived

Flight Plot

Page will automatically refresh every two minutes.

Flight plan parsing failed; only flown route is shown


Map Options




Map Legend


Flown Route
Filed Route
Departure Airport
Arrival Airport
Navaid (VOR, NDB)
Fix

Horizontal Profiles

Position Reports

Time Latitude Longitude Heading Altitude Ground
Speed
02-Aug-20 10:57 48.387149 -122.423916 235 8415ft 121kts
02-Aug-20 10:58 48.362504 -122.479228 236 8514ft 179kts
02-Aug-20 10:59 48.334605 -122.542987 235 8504ft 179kts
02-Aug-20 11:00 48.306633 -122.606594 235 8509ft 186kts
02-Aug-20 11:01 48.277177 -122.669955 227 8503ft 179kts
02-Aug-20 11:02 48.242598 -122.722640 228 8497ft 176kts
02-Aug-20 11:03 48.206309 -122.771384 216 8489ft 175kts
02-Aug-20 11:04 48.167845 -122.816406 219 8480ft 175kts
02-Aug-20 11:05 48.129846 -122.862733 219 8470ft 175kts
02-Aug-20 11:06 48.091714 -122.908306 218 8466ft 175kts
02-Aug-20 11:07 48.053640 -122.953918 218 8469ft 177kts
02-Aug-20 11:08 48.014741 -123.000394 218 8466ft 177kts
02-Aug-20 11:09 47.976339 -123.045958 218 8463ft 174kts
02-Aug-20 11:10 47.938498 -123.090916 219 8471ft 173kts
02-Aug-20 11:11 47.900821 -123.135895 218 8469ft 173kts
02-Aug-20 11:12 47.862860 -123.180804 218 8472ft 174kts
02-Aug-20 11:13 47.825065 -123.225690 218 8486ft 176kts
02-Aug-20 11:14 47.786037 -123.272061 218 8477ft 176kts
02-Aug-20 11:15 47.747960 -123.317103 218 8478ft 173kts
02-Aug-20 11:16 47.710258 -123.361572 218 8482ft 173kts
02-Aug-20 11:17 47.672486 -123.406362 218 8484ft 174kts
02-Aug-20 11:18 47.634368 -123.451157 218 8483ft 173kts
02-Aug-20 11:19 47.596561 -123.495654 218 8485ft 172kts
02-Aug-20 11:20 47.559000 -123.539791 218 8491ft 172kts
02-Aug-20 11:21 47.521317 -123.583902 218 8486ft 172kts
02-Aug-20 11:22 47.481997 -123.630169 218 8004ft 186kts
02-Aug-20 11:23 47.440798 -123.677623 218 7453ft 188kts
02-Aug-20 11:27 47.262053 -123.844679 213 4689ft 194kts
02-Aug-20 11:28 47.218556 -123.886945 213 4426ft 183kts
02-Aug-20 11:29 47.175542 -123.928709 214 4155ft 186kts
02-Aug-20 11:30 47.132082 -123.970752 213 3807ft 187kts
02-Aug-20 11:31 47.088680 -124.012898 213 3439ft 186kts
02-Aug-20 11:32 47.045588 -124.054448 213 3028ft 184kts
02-Aug-20 11:33 47.003880 -124.095087 211 2908ft 176kts
02-Aug-20 11:34 46.962449 -124.106248 119 2911ft 180kts
02-Aug-20 11:35 46.962426 -124.032419 96 2912ft 182kts
02-Aug-20 11:36 46.965748 -123.959026 85 2914ft 183kts
02-Aug-20 11:37 46.973336 -123.884971 81 2913ft 186kts
02-Aug-20 11:38 46.980749 -123.810729 82 2911ft 180kts
02-Aug-20 11:39 46.987883 -123.739123 82 2906ft 171kts
02-Aug-20 11:40 46.994662 -123.671006 82 2908ft 171kts
02-Aug-20 11:41 47.028510 -123.624608 32 2899ft 172kts
02-Aug-20 11:42 47.045610 -123.576026 151 2901ft 161kts
02-Aug-20 11:43 47.014450 -123.608007 245 2705ft 136kts
02-Aug-20 11:44 47.003712 -123.660949 257 2231ft 136kts
02-Aug-20 11:45 46.997461 -123.715144 260 2109ft 129kts
02-Aug-20 11:46 46.991480 -123.765787 259 2112ft 129kts
02-Aug-20 11:47 46.985596 -123.815574 260 1534ft 97kts
02-Aug-20 11:48 46.981064 -123.850566 262 1069ft 90kts
02-Aug-20 11:49 46.976813 -123.887666 262 577ft 93kts
02-Aug-20 11:50 46.972546 -123.925289 262 58ft 84kts
02-Aug-20 11:51 46.971566 -123.934179 71 17ft 3kts
02-Aug-20 11:53 46.972887 -123.931454 69 17ft 12kts
02-Aug-20 11:54 46.973337 -123.931137 351 17ft 0kts
02-Aug-20 11:55 46.973337 -123.931137 351 17ft 0kts
02-Aug-20 11:56 46.973337 -123.931137 351 17ft 0kts
02-Aug-20 11:57 46.973337 -123.931137 351 17ft 0kts
02-Aug-20 11:58 46.973337 -123.931137 351 17ft 0kts
02-Aug-20 11:59 46.973337 -123.931137 351 17ft 0kts
02-Aug-20 12:00 46.973337 -123.931137 351 17ft 0kts
02-Aug-20 12:01 46.973337 -123.931137 351 17ft 0kts

Navigation Log

Ident Type
Flight plan parsing failed, navigation log unavailable